Time;durP1;ratioP1;P1;durP2;ratioP2;P2;SDS_P1;SDS_P2;PMS_P1;PMS_P2;Temp;Humidity;BMP_temperature;BMP_pressure;BME280_temperature;BME280_humidity;BME280_pressure;Samples;Min_cycle;Max_cycle;Signal;HPM_P1;HPM_P2
2021/11/10 00:01:38;;;;;;;4.85;3.10;;;8.30;99.90;;;;;;5034719;28;20174;-73
2021/11/10 00:04:04;;;;;;;4.95;3.00;;;8.30;99.90;;;;;;5021817;28;20660;-74
2021/11/10 00:06:30;;;;;;;7.57;3.22;;;8.30;99.90;;;;;;5034915;28;20205;-74
2021/11/10 00:08:57;;;;;;;3.57;2.30;;;8.30;99.90;;;;;;5015597;28;20184;-74
2021/11/10 00:11:23;;;;;;;4.72;3.25;;;8.20;99.90;;;;;;5033656;28;20572;-74
2021/11/10 00:13:49;;;;;;;4.70;2.83;;;8.20;99.90;;;;;;5033134;28;20161;-75
2021/11/10 00:16:14;;;;;;;4.00;2.73;;;8.20;99.90;;;;;;5033251;28;21098;-74
2021/11/10 00:18:40;;;;;;;6.43;3.20;;;8.20;99.90;;;;;;5015789;28;20174;-74
2021/11/10 00:21:06;;;;;;;4.93;2.20;;;8.20;99.90;;;;;;5033289;28;20173;-74
2021/11/10 00:23:32;;;;;;;7.80;4.33;;;8.10;99.90;;;;;;5024941;28;20571;-74
2021/11/10 00:25:59;;;;;;;4.18;3.65;;;8.10;99.90;;;;;;4998680;28;20300;-74
2021/11/10 00:28:24;;;;;;;5.68;4.03;;;8.10;99.90;;;;;;5034275;28;20224;-75
2021/11/10 00:30:51;;;;;;;5.97;3.80;;;8.00;99.90;;;;;;5016927;28;20166;-74
2021/11/10 00:33:17;;;;;;;5.17;2.97;;;8.00;99.90;;;;;;5016453;28;20174;-74
2021/11/10 00:35:42;;;;;;;5.10;4.50;;;8.00;99.90;;;;;;5000054;28;20552;-75
2021/11/10 00:38:09;;;;;;;4.13;3.20;;;8.00;99.90;;;;;;5017627;28;20241;-75
2021/11/10 00:40:35;;;;;;;3.45;3.00;;;7.90;99.90;;;;;;5023123;28;20568;-74
2021/11/10 00:43:01;;;;;;;4.57;3.40;;;7.90;99.90;;;;;;5034887;28;20698;-75
2021/11/10 00:45:27;;;;;;;5.20;3.30;;;7.90;99.90;;;;;;5015232;28;20292;-74
2021/11/10 00:47:53;;;;;;;4.23;3.33;;;7.90;99.90;;;;;;5032770;28;20588;-74
2021/11/10 00:50:18;;;;;;;3.60;3.13;;;7.90;99.90;;;;;;5015925;28;20602;-74
2021/11/10 00:52:44;;;;;;;6.60;4.70;;;7.90;99.90;;;;;;5033024;28;20261;-74
2021/11/10 00:55:11;;;;;;;7.35;4.30;;;7.90;99.90;;;;;;5015193;28;20209;-74
2021/11/10 00:57:37;;;;;;;5.10;2.95;;;7.80;99.90;;;;;;4998993;28;20181;-74
2021/11/10 01:00:05;;;;;;;5.67;3.33;;;7.80;99.90;;;;;;5032991;28;20575;-74
2021/11/10 01:02:32;;;;;;;4.93;3.60;;;7.80;99.90;;;;;;4999291;28;20522;-74
2021/11/10 01:04:58;;;;;;;3.95;2.75;;;7.70;99.90;;;;;;5015018;28;20209;-75
2021/11/10 01:07:23;;;;;;;4.93;3.37;;;7.60;99.90;;;;;;4998903;28;20218;-75
2021/11/10 01:09:54;;;;;;;4.50;3.37;;;7.60;99.90;;;;;;5015843;28;20165;-75
2021/11/10 01:12:21;;;;;;;7.50;3.45;;;7.50;99.90;;;;;;5015522;28;20166;-74
2021/11/10 01:14:46;;;;;;;7.60;3.55;;;7.50;99.90;;;;;;5014628;28;20575;-74
2021/11/10 01:17:14;;;;;;;4.78;3.30;;;7.50;99.90;;;;;;5019878;28;20166;-74
2021/11/10 01:19:40;;;;;;;4.73;3.43;;;7.40;99.90;;;;;;5014627;28;20652;-74
2021/11/10 01:22:08;;;;;;;9.48;3.92;;;7.40;99.90;;;;;;4998748;28;20170;-75
2021/11/10 01:24:34;;;;;;;5.03;3.53;;;7.30;99.90;;;;;;5014522;28;20181;-75
2021/11/10 01:27:00;;;;;;;5.10;3.85;;;7.30;99.90;;;;;;5014255;28;20197;-75
2021/11/10 01:29:26;;;;;;;5.03;3.78;;;7.30;99.90;;;;;;5014368;28;20191;-75
2021/11/10 01:31:55;;;;;;;6.78;4.03;;;7.30;99.90;;;;;;5014468;28;20196;-74
2021/11/10 01:34:24;;;;;;;5.28;4.05;;;7.20;99.90;;;;;;5013995;28;20170;-74
2021/11/10 01:36:50;;;;;;;4.82;3.85;;;7.20;99.90;;;;;;5013962;28;20205;-74
2021/11/10 01:39:16;;;;;;;4.47;3.00;;;7.20;99.90;;;;;;5013979;28;20672;-74
2021/11/10 01:41:48;;;;;;;4.50;3.57;;;7.20;99.90;;;;;;5014131;28;20587;-74
2021/11/10 01:44:22;;;;;;;6.03;3.20;;;7.10;99.90;;;;;;5014215;28;20174;-74
2021/11/10 01:46:55;;;;;;;5.35;4.15;;;7.20;99.90;;;;;;5014163;28;20201;-75
2021/11/10 01:49:23;;;;;;;4.35;3.85;;;7.10;99.90;;;;;;5014164;28;20220;-74
2021/11/10 01:51:56;;;;;;;5.05;4.30;;;7.10;99.90;;;;;;5014084;28;20174;-74
2021/11/10 01:54:30;;;;;;;6.45;4.18;;;7.10;99.90;;;;;;5019305;28;20169;-74
2021/11/10 01:56:57;;;;;;;8.15;4.20;;;7.00;99.90;;;;;;5013563;28;20211;-74
2021/11/10 01:59:29;;;;;;;4.70;4.13;;;7.00;99.90;;;;;;4997432;28;20536;-74
2021/11/10 02:01:57;;;;;;;7.13;4.32;;;7.00;99.90;;;;;;4997664;28;20173;-74
2021/11/10 02:04:26;;;;;;;7.40;4.25;;;7.00;99.90;;;;;;5013775;28;20545;-75
2021/11/10 02:06:53;;;;;;;6.00;4.22;;;7.00;99.90;;;;;;5030882;28;20202;-74
2021/11/10 02:09:23;;;;;;;7.05;4.78;;;7.00;99.90;;;;;;5013913;28;20208;-74
2021/11/10 02:11:51;;;;;;;5.65;4.30;;;6.90;99.90;;;;;;5014379;28;20184;-74
2021/11/10 02:14:23;;;;;;;5.07;3.85;;;6.90;99.90;;;;;;5013818;28;20227;-74
2021/11/10 02:16:50;;;;;;;6.00;4.47;;;6.90;99.90;;;;;;5016241;28;20193;-74
2021/11/10 02:19:22;;;;;;;5.88;4.20;;;6.90;99.90;;;;;;5017690;28;20527;-74
2021/11/10 02:21:56;;;;;;;5.50;3.33;;;6.90;99.90;;;;;;4994131;28;20166;-74
2021/11/10 02:24:25;;;;;;;5.80;4.32;;;6.90;99.90;;;;;;5000909;28;20208;-74
2021/11/10 02:26:52;;;;;;;11.95;5.28;;;6.90;99.90;;;;;;5017848;28;20205;-74
2021/11/10 02:29:22;;;;;;;5.53;4.10;;;6.80;99.90;;;;;;5035568;28;20169;-74
2021/11/10 02:31:49;;;;;;;6.43;4.53;;;6.80;99.90;;;;;;5022767;28;20178;-75
2021/11/10 02:34:15;;;;;;;5.07;4.22;;;6.80;99.90;;;;;;5017253;28;20173;-74
2021/11/10 02:36:41;;;;;;;7.07;4.25;;;6.70;99.90;;;;;;5015592;28;20203;-74
2021/11/10 02:39:11;;;;;;;5.50;4.60;;;6.70;99.90;;;;;;5016998;28;20166;-74
2021/11/10 02:41:38;;;;;;;5.50;4.25;;;6.70;99.90;;;;;;5017244;28;20602;-74
2021/11/10 02:44:06;;;;;;;8.85;4.35;;;6.70;99.90;;;;;;5034703;28;20177;-74
2021/11/10 02:46:36;;;;;;;11.98;4.78;;;6.70;99.90;;;;;;5034582;28;20212;-74
2021/11/10 02:49:04;;;;;;;4.18;3.78;;;6.70;99.90;;;;;;5017271;28;20165;-74
2021/11/10 02:51:29;;;;;;;5.60;4.53;;;6.60;99.90;;;;;;5035008;28;20197;-74
2021/11/10 02:53:55;;;;;;;5.20;4.03;;;6.70;99.90;;;;;;5034767;28;20584;-74
2021/11/10 02:56:21;;;;;;;6.13;4.90;;;6.60;99.90;;;;;;5016639;28;20201;-74
2021/11/10 02:58:48;;;;;;;8.30;4.60;;;6.60;99.90;;;;;;5017011;28;20932;-74
2021/11/10 03:01:14;;;;;;;8.60;5.47;;;6.50;99.90;;;;;;5034525;28;20633;-74
2021/11/10 03:03:40;;;;;;;8.20;5.78;;;6.50;99.90;;;;;;5017805;28;20188;-74
2021/11/10 03:06:06;;;;;;;6.65;4.85;;;6.50;99.90;;;;;;5016253;28;20209;-74
2021/11/10 03:08:40;;;;;;;7.15;4.55;;;6.40;99.90;;;;;;5022710;28;20165;-74
2021/11/10 03:11:10;;;;;;;5.47;4.05;;;6.40;99.90;;;;;;5016850;28;20571;-74
2021/11/10 03:13:39;;;;;;;7.57;5.00;;;6.30;99.90;;;;;;5016707;28;20264;-74
2021/11/10 03:16:06;;;;;;;5.75;4.78;;;6.30;99.90;;;;;;5000007;28;20605;-75
2021/11/10 03:18:32;;;;;;;7.20;4.20;;;6.30;99.90;;;;;;5016501;28;20182;-74
2021/11/10 03:20:57;;;;;;;7.90;5.10;;;6.20;99.90;;;;;;5034461;28;20713;-74
2021/11/10 03:23:24;;;;;;;6.43;4.32;;;6.20;99.90;;;;;;5016279;28;20184;-74
2021/11/10 03:25:52;;;;;;;6.00;4.70;;;6.20;99.90;;;;;;5015919;28;20210;-74
2021/11/10 03:28:21;;;;;;;6.65;4.30;;;6.10;99.90;;;;;;4999914;28;20173;-76
2021/11/10 03:30:47;;;;;;;8.37;4.43;;;6.10;99.90;;;;;;4999897;28;20188;-76
2021/11/10 03:33:13;;;;;;;6.30;4.50;;;6.10;99.90;;;;;;5033526;28;20573;-76
2021/11/10 03:35:40;;;;;;;5.60;3.63;;;6.00;99.90;;;;;;5016044;28;20276;-76
2021/11/10 03:38:13;;;;;;;6.68;3.70;;;6.00;99.90;;;;;;5016069;28;20178;-76
2021/11/10 03:40:41;;;;;;;8.77;4.25;;;6.00;99.90;;;;;;5016056;28;20177;-76
2021/11/10 03:43:07;;;;;;;8.40;5.05;;;6.00;99.90;;;;;;5015595;28;20178;-76
2021/11/10 03:45:32;;;;;;;5.47;4.17;;;6.00;99.90;;;;;;5021213;28;20213;-76
2021/11/10 03:48:04;;;;;;;7.07;5.38;;;5.90;99.90;;;;;;5015199;28;20174;-76
2021/11/10 03:50:30;;;;;;;9.15;4.68;;;5.90;99.90;;;;;;5015801;28;20528;-76
2021/11/10 03:52:57;;;;;;;4.97;3.95;;;5.90;99.90;;;;;;5033273;28;20169;-76
2021/11/10 03:55:34;;;;;;;3.78;3.47;;;5.90;99.90;;;;;;5015552;28;20201;-76
2021/11/10 03:58:00;;;;;;;4.65;4.00;;;5.80;99.90;;;;;;4998849;28;20608;-76
2021/11/10 04:00:26;;;;;;;4.85;3.67;;;5.90;99.90;;;;;;5015666;28;20205;-77
2021/11/10 04:02:56;;;;;;;6.18;3.85;;;5.80;99.90;;;;;;4999524;28;20249;-77
2021/11/10 04:05:28;;;;;;;7.97;5.10;;;5.80;99.90;;;;;;5015278;28;20596;-77
2021/11/10 04:07:55;;;;;;;7.20;4.72;;;5.80;99.90;;;;;;5015241;28;20232;-77
2021/11/10 04:10:22;;;;;;;7.80;4.90;;;5.70;99.90;;;;;;4999040;28;20533;-76
2021/11/10 04:12:49;;;;;;;5.85;4.53;;;5.70;99.90;;;;;;5015293;28;20631;-77
2021/11/10 04:15:16;;;;;;;4.35;3.40;;;5.70;99.90;;;;;;5032283;28;20286;-76
2021/11/10 04:17:42;;;;;;;5.53;4.88;;;5.70;99.90;;;;;;4996319;28;20184;-77
2021/11/10 04:20:09;;;;;;;8.48;4.47;;;5.70;99.90;;;;;;4999155;28;20214;-76
2021/11/10 04:22:35;;;;;;;6.97;4.63;;;5.70;99.90;;;;;;5019297;28;20225;-76
2021/11/10 04:25:03;;;;;;;7.47;4.55;;;5.70;99.90;;;;;;5014766;28;20216;-77
2021/11/10 04:27:29;;;;;;;7.57;5.05;;;5.70;99.90;;;;;;5031530;28;20180;-77
2021/11/10 04:29:55;;;;;;;6.65;4.47;;;5.70;99.90;;;;;;5031752;28;20165;-76
2021/11/10 04:32:24;;;;;;;6.60;4.03;;;5.70;99.90;;;;;;5014473;28;20257;-76
2021/11/10 04:34:50;;;;;;;4.88;3.35;;;5.70;99.90;;;;;;5014760;28;20208;-77
2021/11/10 04:37:16;;;;;;;6.90;4.10;;;5.70;99.90;;;;;;5014377;28;20169;-77
2021/11/10 04:39:43;;;;;;;5.93;4.90;;;5.70;99.90;;;;;;5014165;28;20607;-76
2021/11/10 04:42:10;;;;;;;9.77;6.80;;;5.70;99.90;;;;;;4998414;28;20169;-76
2021/11/10 04:44:39;;;;;;;4.85;3.97;;;5.70;99.90;;;;;;5014581;28;20169;-76
2021/11/10 04:47:06;;;;;;;5.05;3.90;;;5.70;99.90;;;;;;5013894;28;20185;-76
2021/11/10 04:49:32;;;;;;;5.70;4.30;;;5.70;99.90;;;;;;5014924;28;20170;-76
2021/11/10 04:52:00;;;;;;;4.40;3.80;;;5.70;99.90;;;;;;5014898;28;20567;-76
2021/11/10 04:54:30;;;;;;;7.20;3.83;;;5.80;99.90;;;;;;5032046;28;20596;-76
2021/11/10 04:56:58;;;;;;;6.65;4.90;;;5.80;99.90;;;;;;5014237;28;20198;-76
2021/11/10 04:59:24;;;;;;;5.63;3.80;;;5.80;99.90;;;;;;5036135;28;20174;-76
2021/11/10 05:02:07;;;;;;;5.03;3.57;;;5.80;99.90;;;;;;5016214;28;20268;-76
2021/11/10 05:04:40;;;;;;;9.32;4.40;;;5.80;99.90;;;;;;5013875;28;20220;-76
2021/11/10 05:07:09;;;;;;;5.38;3.78;;;5.80;99.90;;;;;;4997707;28;20217;-76
2021/11/10 05:09:35;;;;;;;5.22;4.22;;;5.80;99.90;;;;;;5014323;28;20169;-76
2021/11/10 05:12:05;;;;;;;7.22;4.40;;;5.80;99.90;;;;;;4998011;28;20202;-77
2021/11/10 05:14:31;;;;;;;7.05;4.28;;;5.80;99.90;;;;;;4997472;28;20170;-77
2021/11/10 05:16:58;;;;;;;6.07;4.32;;;5.80;99.90;;;;;;4981242;28;20589;-76
2021/11/10 05:19:24;;;;;;;4.97;4.33;;;5.80;99.90;;;;;;5014164;28;20176;-77
2021/11/10 05:21:50;;;;;;;4.60;3.63;;;5.80;99.90;;;;;;4997922;28;20174;-77
2021/11/10 05:24:15;;;;;;;6.30;4.93;;;5.80;99.90;;;;;;5031546;28;20671;-76
2021/11/10 05:26:42;;;;;;;6.57;4.00;;;5.80;99.90;;;;;;5030604;28;20267;-76
2021/11/10 05:29:08;;;;;;;5.22;4.35;;;5.80;99.90;;;;;;5013732;28;20598;-76
2021/11/10 05:31:36;;;;;;;5.53;4.07;;;5.80;99.90;;;;;;4997409;28;20298;-76
2021/11/10 05:34:03;;;;;;;7.27;5.53;;;5.80;99.90;;;;;;5031404;28;20254;-77
2021/11/10 05:36:29;;;;;;;11.07;5.60;;;5.90;99.90;;;;;;5033270;28;20627;-76
2021/11/10 05:38:55;;;;;;;10.65;4.18;;;5.90;99.90;;;;;;5032364;28;20699;-76
2021/11/10 05:41:21;;;;;;;7.67;5.60;;;5.90;99.90;;;;;;5031503;28;20169;-76
2021/11/10 05:43:47;;;;;;;4.67;3.77;;;5.90;99.90;;;;;;5031411;28;20577;-76
2021/11/10 05:46:13;;;;;;;7.13;3.77;;;5.90;99.90;;;;;;5030631;28;20624;-76
2021/11/10 05:48:39;;;;;;;5.25;4.00;;;5.90;99.90;;;;;;5013928;28;20265;-77
2021/11/10 05:51:05;;;;;;;5.20;4.20;;;5.90;99.90;;;;;;5013491;28;20268;-77
2021/11/10 05:53:32;;;;;;;5.38;4.18;;;6.00;99.90;;;;;;5013490;28;20170;-76
2021/11/10 05:55:59;;;;;;;4.90;3.85;;;6.00;99.90;;;;;;5030960;28;20274;-76
2021/11/10 05:58:32;;;;;;;5.95;3.65;;;6.00;99.90;;;;;;5031087;28;20533;-76
2021/11/10 06:01:00;;;;;;;4.05;3.60;;;6.00;99.90;;;;;;4997254;28;20188;-76
2021/11/10 06:03:28;;;;;;;7.35;4.13;;;6.10;99.90;;;;;;5031038;28;20257;-76
2021/11/10 06:05:54;;;;;;;4.65;3.85;;;6.10;99.90;;;;;;5030727;28;20627;-76
2021/11/10 06:08:20;;;;;;;4.03;3.00;;;6.00;99.90;;;;;;5031271;28;20252;-75
2021/11/10 06:10:47;;;;;;;5.50;4.90;;;6.00;99.90;;;;;;5031506;28;20529;-75
2021/11/10 06:13:13;;;;;;;4.35;3.80;;;6.00;99.90;;;;;;5033169;28;20224;-76
2021/11/10 06:15:38;;;;;;;8.03;4.60;;;6.00;99.90;;;;;;5016815;28;20205;-77
2021/11/10 06:18:06;;;;;;;4.17;3.53;;;6.10;99.90;;;;;;4996467;28;20588;-77
2021/11/10 06:20:35;;;;;;;4.43;3.72;;;6.10;99.90;;;;;;5013679;28;20223;-77
2021/11/10 06:23:01;;;;;;;6.90;3.90;;;6.10;99.90;;;;;;5031049;28;20547;-77
2021/11/10 06:25:27;;;;;;;5.95;3.63;;;6.10;99.90;;;;;;5013159;28;20209;-77
2021/11/10 06:27:53;;;;;;;4.67;3.30;;;6.10;99.90;;;;;;5013203;28;20162;-76
2021/11/10 06:30:18;;;;;;;6.00;4.00;;;6.10;99.90;;;;;;5030815;28;20249;-77
2021/11/10 06:32:45;;;;;;;4.93;3.87;;;6.10;99.90;;;;;;5013206;28;20174;-77
2021/11/10 06:35:12;;;;;;;4.97;4.10;;;6.10;99.90;;;;;;5013239;28;20193;-76
2021/11/10 06:37:38;;;;;;;6.05;3.70;;;6.10;99.90;;;;;;5030724;28;20210;-76
2021/11/10 06:40:05;;;;;;;4.23;3.43;;;6.10;99.90;;;;;;5030836;28;20634;-77
2021/11/10 06:42:31;;;;;;;4.15;3.63;;;6.10;99.90;;;;;;5030564;28;20575;-77
2021/11/10 06:44:57;;;;;;;5.80;3.73;;;6.10;99.90;;;;;;5030411;28;20197;-77
2021/11/10 06:47:24;;;;;;;3.37;2.87;;;6.10;99.90;;;;;;5030315;28;20570;-76
2021/11/10 06:49:50;;;;;;;4.43;3.60;;;6.10;99.90;;;;;;5031054;28;20571;-76
2021/11/10 06:52:15;;;;;;;5.00;3.30;;;6.10;99.90;;;;;;5036608;28;20165;-77
2021/11/10 06:54:41;;;;;;;4.83;4.30;;;6.10;99.90;;;;;;5012775;28;20166;-76
2021/11/10 06:57:07;;;;;;;9.37;4.90;;;6.10;99.90;;;;;;5012076;28;20233;-76
2021/11/10 06:59:33;;;;;;;5.10;3.87;;;6.10;99.90;;;;;;5032525;28;20566;-76
2021/11/10 07:01:59;;;;;;;7.70;4.40;;;6.10;99.90;;;;;;5029585;28;20691;-76
2021/11/10 07:04:24;;;;;;;5.60;4.13;;;6.10;99.90;;;;;;5015915;28;20603;-75
2021/11/10 07:06:51;;;;;;;4.80;3.93;;;6.10;99.90;;;;;;5032862;28;20560;-76
2021/11/10 07:09:16;;;;;;;8.38;5.00;;;6.10;99.90;;;;;;5015908;28;20181;-76
2021/11/10 07:11:42;;;;;;;8.73;5.57;;;6.10;99.90;;;;;;5033210;28;20174;-75
2021/11/10 07:14:09;;;;;;;5.40;4.00;;;6.20;99.90;;;;;;5015808;28;20576;-76
2021/11/10 07:16:35;;;;;;;9.90;4.95;;;6.20;99.90;;;;;;5033108;28;20194;-75
2021/11/10 07:19:01;;;;;;;4.55;3.75;;;6.20;99.90;;;;;;5009363;28;20201;-76
2021/11/10 07:21:27;;;;;;;7.38;5.03;;;6.30;99.90;;;;;;4997159;28;20178;-76
2021/11/10 07:23:53;;;;;;;6.53;4.97;;;6.30;99.90;;;;;;5045457;28;20177;-76
2021/11/10 07:26:19;;;;;;;10.25;4.05;;;6.30;99.90;;;;;;5045144;28;20200;-75
2021/11/10 07:28:45;;;;;;;4.60;4.20;;;6.30;99.90;;;;;;5038037;28;20158;-75
2021/11/10 07:31:11;;;;;;;12.98;5.00;;;6.50;99.90;;;;;;5015662;28;20730;-75
2021/11/10 07:33:37;;;;;;;7.93;4.67;;;6.50;99.90;;;;;;5032999;28;20273;-76
2021/11/10 07:36:03;;;;;;;9.50;5.33;;;6.60;99.90;;;;;;5017935;28;20244;-76
2021/11/10 07:38:29;;;;;;;6.88;5.20;;;6.60;99.90;;;;;;5033464;28;20166;-75
2021/11/10 07:40:56;;;;;;;5.30;4.43;;;6.60;99.90;;;;;;5033125;28;20499;-75
2021/11/10 07:43:25;;;;;;;6.90;4.20;;;6.70;99.90;;;;;;5015259;28;20598;-75
2021/11/10 07:46:02;;;;;;;8.93;6.07;;;6.60;99.90;;;;;;5014442;28;20206;-76
2021/11/10 07:48:28;;;;;;;5.53;4.03;;;6.70;99.90;;;;;;5032525;28;20169;-76
2021/11/10 07:50:54;;;;;;;7.82;4.63;;;6.70;99.90;;;;;;5033103;28;20169;-76
2021/11/10 07:53:20;;;;;;;9.50;4.30;;;6.70;99.90;;;;;;5015155;28;20923;-76
2021/11/10 07:55:46;;;;;;;9.20;5.00;;;6.80;99.90;;;;;;5032478;28;20619;-76
2021/11/10 07:58:11;;;;;;;6.17;5.37;;;6.90;99.90;;;;;;5015773;28;20239;-76
2021/11/10 08:00:38;;;;;;;5.63;5.03;;;6.90;99.90;;;;;;5015511;28;20189;-75
2021/11/10 08:03:05;;;;;;;9.40;6.53;;;6.80;99.90;;;;;;5013377;28;21126;-74
2021/11/10 08:05:31;;;;;;;7.78;6.60;;;6.80;99.90;;;;;;5019600;28;21304;-74
2021/11/10 08:07:59;;;;;;;12.65;6.13;;;6.80;99.90;;;;;;5031990;28;20698;-75
2021/11/10 08:10:25;;;;;;;9.85;6.13;;;6.80;99.90;;;;;;5015237;28;20578;-75
2021/11/10 08:12:51;;;;;;;8.02;5.95;;;6.80;99.90;;;;;;5030787;28;20781;-75
2021/11/10 08:15:17;;;;;;;6.00;4.93;;;6.80;99.90;;;;;;5033768;28;20285;-75
2021/11/10 08:17:43;;;;;;;7.17;5.23;;;6.80;99.90;;;;;;5031358;28;20992;-75
2021/11/10 08:20:12;;;;;;;8.77;5.28;;;6.90;99.90;;;;;;5032730;28;20169;-75
2021/11/10 08:22:38;;;;;;;6.82;4.65;;;7.00;99.90;;;;;;5032433;28;20166;-75
2021/11/10 08:25:07;;;;;;;9.05;5.00;;;7.00;99.90;;;;;;5031727;28;20193;-74
2021/11/10 08:27:35;;;;;;;5.18;4.20;;;7.10;99.90;;;;;;5013633;28;20638;-74
2021/11/10 08:30:06;;;;;;;10.03;7.03;;;7.20;99.90;;;;;;5013909;28;20750;-73
2021/11/10 08:32:33;;;;;;;6.28;5.20;;;7.20;99.90;;;;;;5032518;28;20573;-74
2021/11/10 08:34:59;;;;;;;6.07;5.47;;;7.30;99.90;;;;;;5032326;28;20178;-74
2021/11/10 08:37:24;;;;;;;9.27;5.03;;;7.50;99.90;;;;;;5032452;28;20176;-74
2021/11/10 08:39:51;;;;;;;7.43;4.60;;;7.60;99.90;;;;;;5032335;28;20952;-75
2021/11/10 08:42:17;;;;;;;7.57;6.00;;;7.70;99.90;;;;;;5018369;28;20173;-76
2021/11/10 08:44:50;;;;;;;6.75;6.00;;;7.80;99.90;;;;;;5030096;28;20184;-76
2021/11/10 08:47:17;;;;;;;9.70;6.53;;;7.90;99.90;;;;;;5031937;28;20260;-76
2021/11/10 08:49:43;;;;;;;6.13;5.20;;;8.00;99.90;;;;;;5032535;28;20170;-76
2021/11/10 08:52:10;;;;;;;9.80;5.63;;;8.10;99.90;;;;;;5032172;28;20176;-76
2021/11/10 08:54:36;;;;;;;8.00;5.25;;;8.30;99.90;;;;;;5032221;28;20192;-76
2021/11/10 08:57:02;;;;;;;8.43;5.27;;;8.50;99.90;;;;;;5031957;28;20619;-76
2021/11/10 08:59:28;;;;;;;7.23;5.73;;;8.60;99.90;;;;;;5014777;28;20166;-76
2021/11/10 09:01:55;;;;;;;7.00;5.53;;;8.80;99.90;;;;;;5014261;28;20587;-76
2021/11/10 09:04:22;;;;;;;9.95;6.30;;;9.00;99.90;;;;;;5032184;28;20203;-76
2021/11/10 09:06:48;;;;;;;7.57;4.95;;;9.20;99.90;;;;;;5031749;28;20581;-77
2021/11/10 09:09:16;;;;;;;7.80;5.80;;;9.30;99.90;;;;;;5014617;28;20173;-77
2021/11/10 09:11:48;;;;;;;8.15;5.82;;;9.50;99.90;;;;;;5014341;28;20509;-76
2021/11/10 09:14:14;;;;;;;8.93;7.00;;;9.60;99.90;;;;;;5031852;28;20170;-76
2021/11/10 09:16:40;;;;;;;10.02;6.05;;;9.70;99.90;;;;;;5031784;28;20190;-75
2021/11/10 09:19:06;;;;;;;6.93;6.15;;;9.80;99.90;;;;;;5037099;28;20178;-78
2021/11/10 09:21:32;;;;;;;7.40;6.47;;;9.80;99.90;;;;;;5014477;28;20330;-78
2021/11/10 09:23:58;;;;;;;5.90;4.60;;;10.00;99.90;;;;;;5013840;28;20576;-77
2021/11/10 09:26:24;;;;;;;8.47;6.27;;;10.10;99.90;;;;;;4997456;28;20632;-77
2021/11/10 09:28:50;;;;;;;7.10;4.90;;;10.20;99.90;;;;;;5031873;28;20750;-77
2021/11/10 09:31:16;;;;;;;9.27;6.60;;;10.40;99.90;;;;;;5031971;28;20565;-77
2021/11/10 09:33:44;;;;;;;5.73;5.20;;;10.50;99.90;;;;;;5031814;28;20656;-77
2021/11/10 09:36:11;;;;;;;8.57;6.43;;;10.50;99.90;;;;;;5031491;28;20738;-77
2021/11/10 09:38:38;;;;;;;7.60;6.90;;;10.60;99.90;;;;;;5031816;28;20177;-77
2021/11/10 09:41:05;;;;;;;10.60;6.53;;;10.70;99.90;;;;;;5014158;28;20174;-77
2021/11/10 09:43:35;;;;;;;8.35;5.55;;;10.70;99.90;;;;;;5031932;28;20255;-77
2021/11/10 09:46:01;;;;;;;7.25;5.60;;;10.80;99.90;;;;;;5013501;28;20213;-77
2021/11/10 09:48:28;;;;;;;9.60;6.57;;;10.80;99.90;;;;;;5031853;28;20161;-78
2021/11/10 09:50:54;;;;;;;8.82;6.93;;;10.90;99.90;;;;;;5031503;28;20560;-76
2021/11/10 09:53:21;;;;;;;7.95;6.28;;;11.00;99.90;;;;;;5031861;28;20539;-77
2021/11/10 09:55:47;;;;;;;8.57;6.15;;;11.10;99.90;;;;;;5036333;28;20185;-78
2021/11/10 09:58:13;;;;;;;6.78;5.50;;;11.10;99.90;;;;;;5031896;28;20197;-76
2021/11/10 10:00:48;;;;;;;11.60;7.00;;;11.20;99.90;;;;;;5031331;28;20181;-77
2021/11/10 10:03:19;;;;;;;8.63;6.55;;;11.20;99.90;;;;;;5031620;28;20265;-77
2021/11/10 10:05:46;;;;;;;7.53;6.15;;;11.10;99.90;;;;;;4997274;28;20232;-77
2021/11/10 10:08:13;;;;;;;8.88;6.38;;;11.20;99.90;;;;;;5013906;28;20248;-77
2021/11/10 10:10:40;;;;;;;7.43;6.60;;;11.30;99.90;;;;;;5031766;28;20561;-77
2021/11/10 10:13:07;;;;;;;11.32;7.25;;;11.30;99.90;;;;;;5031552;28;20177;-77
2021/11/10 10:15:34;;;;;;;11.55;6.70;;;11.30;99.90;;;;;;5031401;28;20201;-77
2021/11/10 10:18:01;;;;;;;9.13;6.30;;;11.30;99.90;;;;;;5013012;28;20193;-77
2021/11/10 10:20:38;;;;;;;9.38;6.45;;;11.30;99.90;;;;;;5013924;28;20204;-77
2021/11/10 10:23:14;;;;;;;7.43;6.70;;;11.20;99.90;;;;;;4993698;28;20623;-77
2021/11/10 10:25:43;;;;;;;6.07;5.47;;;11.30;99.90;;;;;;5029266;28;20300;-77
2021/11/10 10:28:12;;;;;;;7.53;6.70;;;11.30;99.90;;;;;;5030906;28;20173;-77
2021/11/10 10:30:48;;;;;;;7.30;5.78;;;11.30;99.90;;;;;;5013391;28;20169;-77
2021/11/10 10:33:17;;;;;;;7.38;6.63;;;11.30;99.90;;;;;;5035278;28;20231;-76
2021/11/10 10:35:48;;;;;;;9.95;6.95;;;11.30;99.90;;;;;;5012140;28;20568;-77
2021/11/10 10:38:18;;;;;;;8.77;6.97;;;11.40;99.90;;;;;;5016416;28;20584;-77
2021/11/10 10:40:47;;;;;;;9.70;6.90;;;11.40;99.90;;;;;;5035012;28;20170;-77
2021/11/10 10:43:14;;;;;;;6.80;6.07;;;11.50;99.90;;;;;;5014703;28;20164;-77
2021/11/10 10:45:47;;;;;;;8.30;6.82;;;11.60;99.90;;;;;;5032258;28;20267;-77
2021/11/10 10:48:16;;;;;;;9.50;6.65;;;11.70;99.90;;;;;;5034767;28;20173;-77
2021/11/10 10:50:48;;;;;;;7.55;6.85;;;11.70;99.90;;;;;;5034337;28;20176;-76
2021/11/10 10:53:30;;;;;;;7.60;6.78;;;11.70;99.90;;;;;;5016903;28;20531;-77
2021/11/10 10:55:56;;;;;;;8.77;6.40;;;11.70;99.90;;;;;;5034427;28;20575;-72
2021/11/10 10:58:38;;;;;;;11.90;7.67;;;11.70;99.90;;;;;;5035759;28;20174;-76
2021/11/10 11:01:24;;;;;;;8.07;7.22;;;11.70;99.90;;;;;;5034233;28;20189;-77
2021/11/10 11:03:54;;;;;;;9.10;7.22;;;11.60;99.90;;;;;;5016780;28;20249;-77
2021/11/10 11:06:31;;;;;;;10.15;7.18;;;11.50;99.90;;;;;;5033785;28;20293;-76
2021/11/10 11:09:07;;;;;;;9.23;7.30;;;11.40;99.90;;;;;;5035295;28;20260;-77
2021/11/10 11:11:38;;;;;;;8.48;7.57;;;11.40;99.90;;;;;;5037227;28;20200;-76
2021/11/10 11:14:08;;;;;;;7.80;6.40;;;11.40;99.90;;;;;;5033536;28;20178;-77
2021/11/10 11:16:38;;;;;;;7.95;7.15;;;11.40;99.90;;;;;;5033491;28;20181;-77
2021/11/10 11:19:18;;;;;;;8.02;7.22;;;11.40;99.90;;;;;;5016661;28;20201;-77
2021/11/10 11:21:55;;;;;;;7.78;6.70;;;11.40;99.90;;;;;;5033664;28;20165;-77
2021/11/10 11:24:26;;;;;;;10.25;7.82;;;11.40;99.90;;;;;;5034077;28;20188;-77
2021/11/10 11:26:52;;;;;;;10.82;7.63;;;11.40;99.90;;;;;;5015469;28;20198;-78
2021/11/10 11:29:23;;;;;;;10.00;8.10;;;11.40;99.90;;;;;;5015468;28;20172;-78
2021/11/10 11:31:49;;;;;;;9.55;7.70;;;11.50;99.90;;;;;;5033733;28;20220;-77
2021/11/10 11:34:16;;;;;;;9.73;7.20;;;11.60;99.90;;;;;;5033715;28;20523;-78
2021/11/10 11:36:45;;;;;;;11.30;9.38;;;11.70;99.90;;;;;;5033598;28;20192;-78
2021/11/10 11:39:11;;;;;;;12.70;9.10;;;11.90;99.90;;;;;;5016706;28;20178;-78
2021/11/10 11:41:39;;;;;;;8.90;8.00;;;12.00;99.90;;;;;;5035013;28;20215;-79
2021/11/10 11:44:05;;;;;;;12.18;8.45;;;12.20;99.90;;;;;;5033337;28;20166;-78
2021/11/10 11:46:33;;;;;;;12.82;8.45;;;12.30;99.90;;;;;;5020152;28;20201;-77
2021/11/10 11:49:00;;;;;;;9.82;8.73;;;12.40;99.90;;;;;;5034997;28;20253;-77
2021/11/10 11:51:27;;;;;;;9.45;7.35;;;12.50;99.90;;;;;;5035081;28;20647;-77
2021/11/10 11:53:56;;;;;;;8.63;7.00;;;12.60;99.90;;;;;;5033551;28;20260;-77
2021/11/10 11:56:24;;;;;;;9.32;8.27;;;12.80;99.90;;;;;;5033554;28;20635;-76
2021/11/10 11:58:53;;;;;;;13.65;8.85;;;12.80;99.90;;;;;;5016167;28;20166;-78
2021/11/10 12:01:25;;;;;;;10.10;9.02;;;12.90;99.90;;;;;;5016260;28;20507;-76
2021/11/10 12:03:58;;;;;;;12.60;9.40;;;13.00;99.90;;;;;;5033057;28;20247;-76
2021/11/10 12:06:25;;;;;;;10.98;9.45;;;13.00;99.90;;;;;;5032940;28;21087;-77
2021/11/10 12:08:55;;;;;;;12.00;8.73;;;13.00;99.90;;;;;;5033622;28;20162;-77
2021/11/10 12:11:23;;;;;;;9.60;7.90;;;13.00;99.90;;;;;;5033657;28;20181;-78
2021/11/10 12:14:07;;;;;;;12.20;8.10;;;13.00;99.90;;;;;;5033504;28;20201;-76
2021/11/10 12:17:07;;;;;;;11.20;8.18;;;12.90;99.90;;;;;;5032629;28;20192;-77
2021/11/10 12:19:38;;;;;;;7.07;6.43;;;12.90;99.90;;;;;;5015422;28;20669;-76
2021/11/10 12:22:11;;;;;;;10.82;6.85;;;13.00;99.90;;;;;;5015519;28;20181;-77
2021/11/10 12:24:43;;;;;;;10.55;7.80;;;13.00;99.90;;;;;;5037628;28;20285;-77
2021/11/10 12:27:14;;;;;;;9.40;7.40;;;13.00;99.90;;;;;;5014675;28;20197;-76
2021/11/10 12:30:32;;;;;;;8.65;7.30;;;13.00;99.90;;;;;;4998052;28;20556;-77
2021/11/10 12:33:04;;;;;;;11.73;9.23;;;12.90;99.90;;;;;;4933267;29;20165;-76
2021/11/10 12:35:30;;;;;;;9.75;8.25;;;13.00;99.90;;;;;;5008213;28;20232;-77
2021/11/10 12:37:57;;;;;;;11.03;8.93;;;13.00;99.90;;;;;;5014561;28;20174;-77
2021/11/10 12:40:32;;;;;;;12.63;9.18;;;13.00;99.90;;;;;;5033033;28;20173;-77
2021/11/10 12:43:01;;;;;;;8.52;7.63;;;12.90;99.90;;;;;;5016695;28;20265;-76
2021/11/10 12:45:54;;;;;;;10.03;8.13;;;13.00;99.90;;;;;;5032614;28;20555;-77
2021/11/10 12:48:44;;;;;;;9.07;8.07;;;13.00;99.90;;;;;;5014879;28;20568;-76
2021/11/10 12:51:29;;;;;;;10.32;7.13;;;13.00;99.90;;;;;;5032749;28;20174;-77
2021/11/10 12:54:21;;;;;;;7.35;5.97;;;13.00;99.90;;;;;;5015060;28;20296;-78
2021/11/10 12:56:56;;;;;;;8.15;7.38;;;13.10;99.90;;;;;;5016384;28;20200;-77
2021/11/10 12:59:47;;;;;;;9.13;7.60;;;13.10;99.90;;;;;;5031895;28;20177;-77